Latest Weather Observations for Casino

IDN60801

Issued at 4:32 pm EST Wednesday 1 July 2015 (issued every 30 minutes, with the page automatically refreshed every 10 minutes)

About weather observations | Map of weather stations | Latest weather observations for NSW | Other Formats
Station Details ID: 058208 Name: CASINO AIRPORT AWS Lat: -28.88 Lon: 153.06 Height: 20.9 m
Data from the previous 72 hours. | See also: Recent months at Casino
Date/Time
EST
Temp
°C
App
Temp
°C
Dew
Point
Rel
Hum
%
Delta-T
°C
Wind Press
QNH
hPa
Press
MSL
hPa
Rain
since 9 am
mm
Dir
 
Spd
km/h
Gust
km/h
Spd
kts
Gust
kts
01/04:30pm 20.1 18.8 11.3 57 4.8 SE 9 15 5 8 1020.3 1020.3 0.0
01/04:00pm 22.2 21.1 10.0 46 6.6 WSW 6 9 3 5 1020.3 1020.3 0.0
01/03:30pm 22.5 21.2 10.0 45 6.8 SW 7 11 4 6 1020.3 1020.3 0.0
01/03:00pm 23.2 22.5 9.9 43 7.2 SSW 4 9 2 5 1020.4 1020.4 0.0
01/02:30pm 22.5 21.8 11.3 49 6.2 W 6 9 3 5 1020.5 1020.5 0.0
01/02:00pm 21.2 19.8 11.0 52 5.6 SW 9 11 5 6 1020.8 1020.8 0.0
01/01:30pm 22.1 22.2 11.5 51 5.9 WNW 2 7 1 4 1021.1 1021.1 0.0
01/01:00pm 22.2 22.1 13.3 57 5.1 WNW 6 11 3 6 1021.4 1021.4 0.0
01/12:30pm 21.7 20.8 12.5 56 5.2 NNW 9 17 5 9 1021.9 1021.9 0.0
01/12:00pm 21.2 20.6 12.3 57 5.0 WNW 7 13 4 7 1022.6 1022.6 0.0
01/11:30am 20.7 20.2 12.7 60 4.5 WNW 7 13 4 7 1023.1 1023.1 0.0
01/11:00am 19.4 19.0 12.9 66 3.7 W 7 11 4 6 1023.8 1023.8 0.0
01/10:30am 18.1 17.6 12.5 70 3.1 WNW 7 13 4 7 1024.2 1024.2 0.0
01/10:00am 17.3 16.5 13.0 76 2.4 NW 9 11 5 6 1024.6 1024.6 0.0
01/09:30am 15.7 14.8 12.6 82 1.7 NW 9 13 5 7 1024.7 1024.7 0.0
01/09:00am 13.7 12.8 12.6 93 0.6 NW 9 11 5 6 1024.8 1024.8 0.0
01/08:30am 12.2 11.4 11.1 93 0.6 W 6 9 3 5 1024.8 1024.8 0.0
01/08:00am 12.0 10.7 11.1 94 0.5 WNW 9 11 5 6 1024.7 1024.7 0.0
01/07:30am 11.7 10.3 10.8 94 0.5 NW 9 11 5 6 1024.5 1024.5 0.0
01/07:00am 11.0 10.3 10.1 94 0.5 W 4 9 2 5 1024.4 1024.4 0.0
01/06:30am 10.8 9.5 9.9 94 0.5 WNW 7 7 4 4 1024.0 1024.0 0.0
01/06:00am 10.5 9.3 9.6 94 0.4 SW 6 7 3 4 1023.8 1023.8 0.0
01/05:30am 10.6 9.4 9.7 94 0.5 NW 6 7 3 4 1023.5 1023.5 0.0
01/05:00am 10.3 9.1 9.4 94 0.4 SSW 6 9 3 5 1023.5 1023.5 0.0
01/04:30am 10.6 8.9 9.7 94 0.5 NW 9 13 5 7 1023.7 1023.7 0.0
01/04:00am 9.9 8.0 9.0 94 0.4 WNW 9 13 5 7 1023.7 1023.7 0.0
01/03:30am 10.5 8.7 9.6 94 0.5 WNW 9 11 5 6 1023.9 1023.9 0.0
01/03:00am 10.0 8.5 9.1 94 0.4 NW 7 9 4 5 1024.2 1024.2 0.0
01/02:30am 10.0 8.1 9.1 94 0.4 WNW 9 11 5 6 1024.6 1024.6 0.0
01/02:00am 10.1 8.2 9.2 94 0.4 WNW 9 11 5 6 1024.6 1024.6 0.0
01/01:30am 10.4 8.6 9.5 94 0.5 W 9 11 5 6 1024.9 1024.9 0.0
01/01:00am 9.3 8.1 8.1 92 0.6 W 4 6 2 3 1025.0 1025.0 0.0
01/12:30am 10.7 9.6 9.8 94 0.5 WNW 6 7 3 4 1025.2 1025.2 0.0
01/12:00am 10.9 9.2 10.0 94 0.5 WNW 9 11 5 6 1025.5 1025.5 0.0
 
Date/Time
EST
Temp
°C
App
Temp
°C
Dew
Point
Rel
Hum
%
Delta-T
°C
Wind Press
QNH
hPa
Press
MSL
hPa
Rain
since 9 am
mm
Dir
 
Spd
km/h
Gust
km/h
Spd
kts
Gust
kts
30/11:30pm 10.5 9.1 9.6 94 0.5 WNW 7 9 4 5 1025.5 1025.5 0.0
30/11:00pm 9.6 9.3 8.5 93 0.5 CALM 0 0 0 0 1025.5 1025.5 0.0
30/10:30pm 10.0 8.9 8.6 91 0.7 W 4 6 2 3 1025.9 1025.9 0.0
30/10:00pm 10.5 9.3 9.4 93 0.5 W 6 9 3 5 1025.9 1025.9 0.0
30/09:30pm 10.9 9.7 9.7 92 0.6 WNW 6 7 3 4 1025.9 1025.9 0.0
30/09:00pm 11.4 10.1 10.1 92 0.7 WNW 7 13 4 7 1025.9 1025.9 0.0
30/08:30pm 10.9 10.8 9.3 90 0.8 CALM 0 0 0 0 1025.7 1025.7 0.0
30/08:00pm 11.3 10.5 9.7 90 0.8 SW 4 7 2 4 1025.4 1025.4 0.0
30/07:30pm 12.1 12.2 10.0 87 1.1 CALM 0 0 0 0 1025.3 1025.3 0.0
30/07:00pm 13.3 12.4 11.4 88 1.0 SE 7 9 4 5 1025.3 1025.3 0.0
30/06:30pm 13.4 13.8 11.1 86 1.2 CALM 0 0 0 0 1025.1 1025.1 0.0
30/06:00pm 13.8 13.7 10.8 82 1.6 NE 2 6 1 3 1024.8 1024.8 0.0
30/05:30pm 15.2 14.6 11.6 79 1.9 SSE 6 6 3 3 1024.5 1024.5 0.0
30/05:00pm 16.7 16.7 11.2 70 2.9 S 2 6 1 3 1024.4 1024.4 0.0
30/04:30pm 19.5 18.8 11.5 60 4.4 SW 6 7 3 4 1024.4 1024.4 0.0
30/04:00pm 20.6 19.7 11.5 56 5.0 SSW 7 7 4 4 1024.4 1024.4 0.0
30/03:30pm 22.1 22.2 11.5 51 5.9 NNE 2 6 1 3 1024.4 1024.4 0.0
30/03:00pm 19.7 19.2 12.0 61 4.3 NE 6 7 3 4 1024.3 1024.3 0.0
30/02:30pm 20.6 20.8 10.7 53 5.4 CALM 0 0 0 0 1024.3 1024.3 0.0
30/02:00pm 20.7 19.5 11.6 56 5.0 S 9 11 5 6 1024.5 1024.5 0.0
30/01:30pm 21.6 20.6 12.2 55 5.3 SW 9 13 5 7 1024.9 1024.9 0.0
30/01:00pm 21.4 20.1 11.4 53 5.5 NW 9 13 5 7 1025.3 1025.3 0.0
30/12:30pm 20.7 19.5 11.6 56 5.1 NW 9 13 5 7 1025.9 1025.9 0.0
30/12:00pm 21.5 20.8 13.2 59 4.7 NNW 9 11 5 6 1026.6 1026.6 0.0
30/11:30am 20.1 19.5 12.3 61 4.4 N 7 9 4 5 1027.1 1027.1 0.0
30/11:00am 19.8 19.0 13.0 65 3.8 NW 9 13 5 7 1027.7 1027.7 0.0
30/10:30am 18.7 18.2 12.7 68 3.4 W 7 11 4 6 1028.2 1028.2 0.0
30/10:00am 17.7 17.4 12.8 73 2.7 WNW 6 13 3 7 1028.4 1028.4 0.0
30/09:30am 16.4 16.0 14.2 87 1.3 WNW 9 11 5 6 1028.7 1028.7 0.0
30/09:00am 16.0 16.8 13.7 86 1.3 ESE 2 7 1 4 1028.4 1028.4 0.8
30/08:30am 14.0 13.8 12.9 93 0.6 NW 6 9 3 5 1028.8 1028.8 0.8
30/08:00am 12.4 11.5 11.5 94 0.5 WNW 7 11 4 6 1028.7 1028.7 0.8
30/07:30am 11.8 11.0 10.9 94 0.5 WNW 6 7 3 4 1028.6 1028.6 0.8
30/07:00am 11.2 9.6 10.3 94 0.5 WNW 9 13 5 7 1028.4 1028.4 0.8
30/06:30am 11.2 10.0 10.3 94 0.5 W 7 9 4 5 1028.5 1028.5 0.8
30/06:00am 11.3 10.3 10.4 94 0.5 WSW 6 7 3 4 1028.1 1028.1 0.8
30/05:30am 11.5 11.7 10.6 94 0.5 CALM 0 0 0 0 1028.2 1028.2 0.8
30/05:00am 11.3 11.1 10.4 94 0.5 NW 2 7 1 4 1028.3 1028.3 0.6
30/04:30am 10.8 9.7 9.9 94 0.5 WSW 6 7 3 4 1028.1 1028.1 0.6
30/04:00am 10.6 9.4 9.7 94 0.4 WSW 6 7 3 4 1028.0 1028.0 0.6
30/03:30am 10.7 9.6 9.8 94 0.5 WNW 6 7 3 4 1028.2 1028.2 0.6
30/03:00am 10.9 9.6 10.0 94 0.5 NW 7 9 4 5 1028.6 1028.6 0.6
30/02:30am 10.9 9.8 10.0 94 0.5 WNW 6 7 3 4 1028.7 1028.7 0.6
30/02:00am 10.3 9.0 9.2 93 0.5 W 6 7 3 4 1028.8 1028.8 0.6
30/01:30am 10.7 10.6 9.6 93 0.6 CALM 0 0 0 0 1028.7 1028.7 0.6
30/01:00am 11.3 10.3 10.2 93 0.6 WNW 6 7 3 4 1029.0 1029.0 0.6
30/12:30am 11.5 11.6 10.2 92 0.7 CALM 0 0 0 0 1029.1 1029.1 0.4
30/12:00am 12.2 11.4 10.9 92 0.7 NW 6 6 3 3 1029.3 1029.3 0.4
 
Date/Time
EST
Temp
°C
App
Temp
°C
Dew
Point
Rel
Hum
%
Delta-T
°C
Wind Press
QNH
hPa
Press
MSL
hPa
Rain
since 9 am
mm
Dir
 
Spd
km/h
Gust
km/h
Spd
kts
Gust
kts
29/11:30pm 12.8 12.2 11.7 93 0.6 NW 6 6 3 3 1029.5 1029.5 0.4
29/11:00pm 12.9 12.3 11.6 92 0.7 NW 6 7 3 4 1029.8 1029.8 0.4
29/10:30pm 13.2 12.9 11.4 89 1.0 WSW 4 7 2 4 1030.0 1030.0 0.4
29/10:00pm 14.2 13.3 12.6 90 0.9 SW 9 11 5 6 1030.1 1030.1 0.4
29/09:30pm 14.3 14.0 13.2 93 0.6 WSW 7 11 4 6 1030.1 1030.1 0.4
29/09:00pm 12.9 13.3 11.3 90 0.8 CALM 0 0 0 0 1030.2 1030.2 0.0
29/08:30pm 12.5 12.7 10.7 89 0.9 CALM 0 0 0 0 1030.1 1030.1 0.0
29/08:00pm 13.3 13.7 11.2 87 1.1 CALM 0 0 0 0 1030.0 1030.0 0.0
29/07:30pm 14.7 14.4 12.6 87 1.1 WNW 6 7 3 4 1030.0 1030.0 0.0
29/07:00pm 15.1 14.8 12.8 86 1.3 S 6 7 3 4 1029.7 1029.7 0.0
29/06:30pm 15.3 15.1 13.1 87 1.2 SSE 6 6 3 3 1029.4 1029.4 0.0
29/06:00pm 15.1 14.8 12.6 85 1.4 SSE 6 9 3 5 1029.1 1029.1 0.0
29/05:30pm 15.2 16.0 12.5 84 1.5 CALM 0 0 0 0 1028.8 1028.8 0.0
29/05:00pm 15.8 16.0 12.0 78 2.1 NNE 2 6 1 3 1028.5 1028.5 0.0
29/04:30pm 17.9 17.4 12.1 69 3.2 NNE 6 7 3 4 1028.6 1028.6 0.0
29/04:00pm 19.3 19.0 12.8 66 3.6 NNE 6 7 3 4 1028.8 1028.8 0.0
29/03:30pm 19.4 18.6 12.9 66 3.7 NE 9 11 5 6 1028.8 1028.8 0.0
29/03:00pm 18.6 17.8 13.0 70 3.1 NE 9 13 5 7 1029.1 1029.1 0.0
29/02:30pm 18.6 17.9 13.2 71 3.1 ENE 9 11 5 6 1029.2 1029.2 0.0
29/02:00pm 18.7 17.1 12.9 69 3.2 E 13 15 7 8 1029.2 1029.2 0.0
29/01:30pm 18.6 18.0 13.5 72 2.9 SSE 9 13 5 7 1029.5 1029.5 0.0
29/01:00pm 17.6 17.0 13.5 77 2.3 S 9 13 5 7 1029.7 1029.7 0.0
29/12:30pm 19.1 18.0 13.1 68 3.4 SE 11 19 6 10 1029.9 1029.9 0.0
29/12:00pm 19.2 18.7 12.7 66 3.6 SE 7 17 4 9 1030.5 1030.5 0.0
29/11:30am 18.6 17.9 11.9 65 3.7 SSE 7 11 4 6 1031.2 1031.2 0.0
29/11:00am 19.3 18.2 12.1 63 4.0 S 9 15 5 8 1031.8 1031.8 0.0
29/10:30am 18.7 17.5 11.5 63 3.9 S 9 15 5 8 1031.7 1031.7 0.0
29/10:00am 18.4 17.7 11.9 66 3.6 WSW 7 11 4 6 1032.1 1032.1 0.0
29/09:30am 16.7 16.1 11.6 72 2.8 W 6 9 3 5 1032.5 1032.5 0.0
29/09:00am 15.5 15.2 11.5 77 2.1 W 4 7 2 4 1032.2 1032.2 0.0
29/08:30am 14.9 14.9 12.4 85 1.4 W 4 7 2 4 1032.1 1032.1 0.0
29/08:00am 14.1 13.7 12.5 90 0.9 WNW 6 7 3 4 1032.0 1032.0 0.0
29/07:30am 13.3 13.9 11.9 91 0.8 CALM 0 0 0 0 1031.8 1031.8 0.0
29/07:00am 13.3 13.9 11.9 91 0.7 CALM 0 0 0 0 1031.5 1031.5 0.0
29/06:30am 13.0 12.7 11.6 91 0.7 E 4 6 2 3 1031.2 1031.2 0.0
29/06:00am 12.6 13.0 11.2 91 0.7 CALM 0 0 0 0 1030.9 1030.9 0.0
29/05:30am 12.8 13.2 11.4 91 0.7 CALM 0 0 0 0 1030.6 1030.6 0.0
29/05:00am 12.9 13.4 11.5 91 0.7 CALM 0 0 0 0 1030.3 1030.3 0.0
29/04:30am 13.3 14.0 12.2 93 0.6 CALM 0 0 0 0 1030.2 1030.2 0.0
29/04:00am 13.3 13.9 12.0 92 0.7 CALM 0 0 0 0 1030.2 1030.2 0.0
29/03:30am 13.6 13.6 12.5 93 0.6 NW 4 6 2 3 1030.2 1030.2 0.0
29/03:00am 13.5 13.1 12.4 93 0.6 NW 6 7 3 4 1030.4 1030.4 0.0
29/02:30am 13.1 12.4 12.0 93 0.6 NW 7 7 4 4 1030.5 1030.5 0.0
29/02:00am 13.4 12.9 12.5 94 0.5 WNW 7 9 4 5 1030.5 1030.5 0.0
29/01:30am 13.4 12.9 12.5 94 0.5 NW 7 7 4 4 1030.4 1030.4 0.0
29/01:00am 12.6 12.8 11.7 94 0.5 NNW 2 6 1 3 1030.5 1030.5 0.0
29/12:30am 12.2 12.2 11.3 94 0.5 NNW 2 6 1 3 1030.6 1030.6 0.0
29/12:00am 12.1 11.3 11.2 94 0.5 WNW 6 9 3 5 1030.7 1030.7 0.0
 
Date/Time
EST
Temp
°C
App
Temp
°C
Dew
Point
Rel
Hum
%
Delta-T
°C
Wind Press
QNH
hPa
Press
MSL
hPa
Rain
since 9 am
mm
Dir
 
Spd
km/h
Gust
km/h
Spd
kts
Gust
kts
28/11:30pm 11.5 10.9 10.4 93 0.6 W 4 7 2 4 1030.8 1030.8 0.0
28/11:00pm 11.0 10.9 9.6 91 0.7 CALM 0 0 0 0 1031.0 1031.0 0.0
28/10:30pm 12.2 12.5 10.9 92 0.7 CALM 0 0 0 0 1031.1 1031.1 0.0
28/10:00pm 12.2 12.5 10.8 91 0.7 CALM 0 0 0 0 1031.2 1031.2 0.0
28/09:30pm 13.2 13.0 11.9 92 0.7 SW 4 7 2 4 1031.2 1031.2 0.0
28/09:00pm 13.5 14.3 12.4 93 0.6 CALM 0 0 0 0 1031.1 1031.1 0.0
28/08:30pm 13.2 12.5 12.1 93 0.6 SSW 7 7 4 4 1031.1 1031.1 0.0
28/08:00pm 12.8 13.3 11.7 93 0.6 CALM 0 0 0 0 1030.8 1030.8 0.0
28/07:30pm 13.4 14.0 11.8 90 0.9 CALM 0 0 0 0 1030.5 1030.5 0.0
28/07:00pm 13.9 13.8 12.1 89 1.0 SSE 4 6 2 3 1030.1 1030.1 0.0
28/06:30pm 14.4 13.9 11.9 85 1.3 ESE 6 7 3 4 1029.6 1029.6 0.0
28/06:00pm 15.5 14.7 12.8 84 1.5 E 9 11 5 6 1029.2 1029.2 0.0
28/05:30pm 15.8 14.4 12.2 79 2.0 E 11 13 6 7 1028.9 1028.9 0.0
28/05:00pm 17.2 16.0 12.7 75 2.5 ESE 11 13 6 7 1028.8 1028.8 0.0

Other Formats:

Comma delimited format used in spreadsheet applications
http://www.bom.gov.au/fwo/IDN60801/IDN60801.94573.axf

JavaScript Object Notation format (JSON) in row-major order
http://www.bom.gov.au/fwo/IDN60801/IDN60801.94573.json